sensor_id;sensor_type;location;lat;lon;timestamp;P1;durP1;ratioP1;P2;durP2;ratioP2
20593;SDS011;10455;48.732;10.266;2024-01-15T00:02:01;50.23;;;25.87;;
20593;SDS011;10455;48.732;10.266;2024-01-15T00:07:03;50.30;;;25.97;;
20593;SDS011;10455;48.732;10.266;2024-01-15T00:12:05;49.60;;;24.90;;
20593;SDS011;10455;48.732;10.266;2024-01-15T00:17:09;44.20;;;23.50;;
20593;SDS011;10455;48.732;10.266;2024-01-15T00:22:11;43.53;;;23.07;;
20593;SDS011;10455;48.732;10.266;2024-01-15T00:27:13;41.87;;;21.53;;
20593;SDS011;10455;48.732;10.266;2024-01-15T00:32:16;40.77;;;21.93;;
20593;SDS011;10455;48.732;10.266;2024-01-15T00:37:18;43.57;;;21.43;;
20593;SDS011;10455;48.732;10.266;2024-01-15T00:42:20;36.80;;;20.70;;
20593;SDS011;10455;48.732;10.266;2024-01-15T00:47:23;40.23;;;20.30;;
20593;SDS011;10455;48.732;10.266;2024-01-15T00:52:25;37.03;;;19.30;;
20593;SDS011;10455;48.732;10.266;2024-01-15T00:57:27;33.07;;;19.60;;
20593;SDS011;10455;48.732;10.266;2024-01-15T01:02:30;36.97;;;18.83;;
20593;SDS011;10455;48.732;10.266;2024-01-15T01:07:32;35.17;;;18.33;;
20593;SDS011;10455;48.732;10.266;2024-01-15T01:12:34;37.37;;;19.50;;
20593;SDS011;10455;48.732;10.266;2024-01-15T01:17:37;32.30;;;19.23;;
20593;SDS011;10455;48.732;10.266;2024-01-15T01:22:39;36.07;;;19.93;;
20593;SDS011;10455;48.732;10.266;2024-01-15T01:27:41;41.83;;;21.80;;
20593;SDS011;10455;48.732;10.266;2024-01-15T01:32:44;39.00;;;21.00;;
20593;SDS011;10455;48.732;10.266;2024-01-15T01:37:46;42.43;;;22.10;;
20593;SDS011;10455;48.732;10.266;2024-01-15T01:42:48;37.50;;;21.03;;
20593;SDS011;10455;48.732;10.266;2024-01-15T01:47:51;33.17;;;19.93;;
20593;SDS011;10455;48.732;10.266;2024-01-15T01:52:53;35.77;;;20.83;;
20593;SDS011;10455;48.732;10.266;2024-01-15T01:57:56;38.67;;;20.13;;
20593;SDS011;10455;48.732;10.266;2024-01-15T02:03:00;36.87;;;20.50;;
20593;SDS011;10455;48.732;10.266;2024-01-15T02:08:03;40.30;;;19.83;;
20593;SDS011;10455;48.732;10.266;2024-01-15T02:13:05;33.73;;;18.10;;
20593;SDS011;10455;48.732;10.266;2024-01-15T02:18:09;30.33;;;16.67;;
20593;SDS011;10455;48.732;10.266;2024-01-15T02:23:13;32.83;;;18.07;;
20593;SDS011;10455;48.732;10.266;2024-01-15T02:28:16;31.57;;;17.10;;
20593;SDS011;10455;48.732;10.266;2024-01-15T02:33:18;30.03;;;16.53;;
20593;SDS011;10455;48.732;10.266;2024-01-15T02:38:22;27.97;;;16.17;;
20593;SDS011;10455;48.732;10.266;2024-01-15T02:43:24;26.23;;;15.77;;
20593;SDS011;10455;48.732;10.266;2024-01-15T02:48:25;26.77;;;13.87;;
20593;SDS011;10455;48.732;10.266;2024-01-15T02:53:29;26.67;;;15.30;;
20593;SDS011;10455;48.732;10.266;2024-01-15T02:58:31;24.20;;;14.87;;
20593;SDS011;10455;48.732;10.266;2024-01-15T03:03:33;26.07;;;14.43;;
20593;SDS011;10455;48.732;10.266;2024-01-15T03:08:36;25.47;;;14.60;;
20593;SDS011;10455;48.732;10.266;2024-01-15T03:13:38;20.63;;;13.30;;
20593;SDS011;10455;48.732;10.266;2024-01-15T03:18:40;22.80;;;14.13;;
20593;SDS011;10455;48.732;10.266;2024-01-15T03:23:52;16.10;;;11.97;;
20593;SDS011;10455;48.732;10.266;2024-01-15T03:28:54;19.93;;;13.07;;
20593;SDS011;10455;48.732;10.266;2024-01-15T03:33:55;19.20;;;12.23;;
20593;SDS011;10455;48.732;10.266;2024-01-15T03:38:59;18.67;;;12.43;;
20593;SDS011;10455;48.732;10.266;2024-01-15T03:44:01;17.77;;;10.83;;
20593;SDS011;10455;48.732;10.266;2024-01-15T03:49:03;17.17;;;12.30;;
20593;SDS011;10455;48.732;10.266;2024-01-15T03:54:06;21.53;;;12.43;;
20593;SDS011;10455;48.732;10.266;2024-01-15T03:59:08;17.33;;;11.60;;
20593;SDS011;10455;48.732;10.266;2024-01-15T04:04:09;18.97;;;12.30;;
20593;SDS011;10455;48.732;10.266;2024-01-15T04:09:13;18.23;;;12.63;;
20593;SDS011;10455;48.732;10.266;2024-01-15T04:14:15;20.77;;;12.13;;
20593;SDS011;10455;48.732;10.266;2024-01-15T04:19:17;18.23;;;12.40;;
20593;SDS011;10455;48.732;10.266;2024-01-15T04:24:20;17.67;;;12.30;;
20593;SDS011;10455;48.732;10.266;2024-01-15T04:29:22;16.77;;;12.03;;
20593;SDS011;10455;48.732;10.266;2024-01-15T04:34:24;19.60;;;12.03;;
20593;SDS011;10455;48.732;10.266;2024-01-15T04:39:27;17.67;;;12.07;;
20593;SDS011;10455;48.732;10.266;2024-01-15T04:44:29;17.13;;;11.40;;
20593;SDS011;10455;48.732;10.266;2024-01-15T04:49:31;17.10;;;11.00;;
20593;SDS011;10455;48.732;10.266;2024-01-15T04:54:34;19.20;;;11.50;;
20593;SDS011;10455;48.732;10.266;2024-01-15T04:59:36;20.13;;;12.10;;
20593;SDS011;10455;48.732;10.266;2024-01-15T05:04:38;18.57;;;11.90;;
20593;SDS011;10455;48.732;10.266;2024-01-15T05:09:41;16.40;;;11.10;;
20593;SDS011;10455;48.732;10.266;2024-01-15T05:14:43;18.43;;;12.10;;
20593;SDS011;10455;48.732;10.266;2024-01-15T05:19:45;19.80;;;11.87;;
20593;SDS011;10455;48.732;10.266;2024-01-15T05:24:49;21.20;;;12.57;;
20593;SDS011;10455;48.732;10.266;2024-01-15T05:29:50;16.90;;;10.40;;
20593;SDS011;10455;48.732;10.266;2024-01-15T05:34:52;20.43;;;12.33;;
20593;SDS011;10455;48.732;10.266;2024-01-15T05:39:56;17.40;;;12.03;;
20593;SDS011;10455;48.732;10.266;2024-01-15T05:44:57;18.73;;;12.63;;
20593;SDS011;10455;48.732;10.266;2024-01-15T05:50:02;21.97;;;12.03;;
20593;SDS011;10455;48.732;10.266;2024-01-15T05:55:06;16.33;;;11.57;;
20593;SDS011;10455;48.732;10.266;2024-01-15T06:00:10;17.00;;;12.63;;
20593;SDS011;10455;48.732;10.266;2024-01-15T06:05:13;17.00;;;11.73;;
20593;SDS011;10455;48.732;10.266;2024-01-15T06:10:16;18.53;;;11.67;;
20593;SDS011;10455;48.732;10.266;2024-01-15T06:15:18;18.27;;;11.40;;
20593;SDS011;10455;48.732;10.266;2024-01-15T06:20:20;14.27;;;10.63;;
20593;SDS011;10455;48.732;10.266;2024-01-15T06:25:23;15.93;;;10.47;;
20593;SDS011;10455;48.732;10.266;2024-01-15T06:30:25;19.07;;;11.70;;
20593;SDS011;10455;48.732;10.266;2024-01-15T06:35:27;14.83;;;11.77;;
20593;SDS011;10455;48.732;10.266;2024-01-15T06:40:30;14.47;;;11.07;;
20593;SDS011;10455;48.732;10.266;2024-01-15T06:45:32;15.17;;;11.00;;
20593;SDS011;10455;48.732;10.266;2024-01-15T06:50:33;14.47;;;10.67;;
20593;SDS011;10455;48.732;10.266;2024-01-15T06:55:37;20.50;;;11.67;;
20593;SDS011;10455;48.732;10.266;2024-01-15T07:00:39;12.60;;;10.23;;
20593;SDS011;10455;48.732;10.266;2024-01-15T07:05:41;16.33;;;9.93;;
20593;SDS011;10455;48.732;10.266;2024-01-15T07:10:44;13.87;;;10.73;;
20593;SDS011;10455;48.732;10.266;2024-01-15T07:15:47;17.23;;;11.10;;
20593;SDS011;10455;48.732;10.266;2024-01-15T07:20:49;17.33;;;10.83;;
20593;SDS011;10455;48.732;10.266;2024-01-15T07:25:52;15.57;;;11.23;;
20593;SDS011;10455;48.732;10.266;2024-01-15T07:30:54;14.87;;;10.60;;
20593;SDS011;10455;48.732;10.266;2024-01-15T07:35:56;13.10;;;10.07;;
20593;SDS011;10455;48.732;10.266;2024-01-15T07:40:59;15.57;;;11.37;;
20593;SDS011;10455;48.732;10.266;2024-01-15T07:46:02;14.67;;;10.93;;
20593;SDS011;10455;48.732;10.266;2024-01-15T07:51:04;11.90;;;9.77;;
20593;SDS011;10455;48.732;10.266;2024-01-15T07:56:07;12.27;;;9.90;;
20593;SDS011;10455;48.732;10.266;2024-01-15T08:01:09;14.53;;;10.17;;
20593;SDS011;10455;48.732;10.266;2024-01-15T08:06:11;14.43;;;10.27;;
20593;SDS011;10455;48.732;10.266;2024-01-15T08:11:14;9.53;;;8.13;;
20593;SDS011;10455;48.732;10.266;2024-01-15T08:16:16;13.37;;;9.43;;
20593;SDS011;10455;48.732;10.266;2024-01-15T08:21:18;9.37;;;8.27;;
20593;SDS011;10455;48.732;10.266;2024-01-15T08:26:22;12.73;;;8.73;;
20593;SDS011;10455;48.732;10.266;2024-01-15T08:31:23;14.00;;;10.23;;
20593;SDS011;10455;48.732;10.266;2024-01-15T08:36:25;11.57;;;8.90;;
20593;SDS011;10455;48.732;10.266;2024-01-15T08:41:31;9.60;;;8.33;;
20593;SDS011;10455;48.732;10.266;2024-01-15T08:46:34;10.93;;;8.50;;
20593;SDS011;10455;48.732;10.266;2024-01-15T08:51:37;11.50;;;9.20;;
20593;SDS011;10455;48.732;10.266;2024-01-15T08:56:40;12.13;;;10.00;;
20593;SDS011;10455;48.732;10.266;2024-01-15T09:01:42;11.77;;;9.30;;
20593;SDS011;10455;48.732;10.266;2024-01-15T09:06:44;13.77;;;9.33;;
20593;SDS011;10455;48.732;10.266;2024-01-15T09:11:48;11.87;;;9.00;;
20593;SDS011;10455;48.732;10.266;2024-01-15T09:16:50;10.20;;;8.40;;
20593;SDS011;10455;48.732;10.266;2024-01-15T09:21:52;11.47;;;9.00;;
20593;SDS011;10455;48.732;10.266;2024-01-15T09:26:55;13.00;;;9.63;;
20593;SDS011;10455;48.732;10.266;2024-01-15T09:31:57;11.43;;;9.07;;
20593;SDS011;10455;48.732;10.266;2024-01-15T09:36:59;12.57;;;9.47;;
20593;SDS011;10455;48.732;10.266;2024-01-15T09:42:05;9.20;;;7.33;;
20593;SDS011;10455;48.732;10.266;2024-01-15T09:47:08;10.63;;;8.37;;
20593;SDS011;10455;48.732;10.266;2024-01-15T09:52:11;10.93;;;8.43;;
20593;SDS011;10455;48.732;10.266;2024-01-15T09:57:14;7.97;;;7.20;;
20593;SDS011;10455;48.732;10.266;2024-01-15T10:02:16;9.63;;;8.30;;
20593;SDS011;10455;48.732;10.266;2024-01-15T10:07:18;9.77;;;8.23;;
20593;SDS011;10455;48.732;10.266;2024-01-15T10:12:23;8.63;;;7.73;;
20593;SDS011;10455;48.732;10.266;2024-01-15T10:17:27;9.60;;;7.93;;
20593;SDS011;10455;48.732;10.266;2024-01-15T10:22:29;9.40;;;7.97;;
20593;SDS011;10455;48.732;10.266;2024-01-15T10:27:32;9.80;;;8.47;;
20593;SDS011;10455;48.732;10.266;2024-01-15T10:32:34;7.93;;;7.03;;
20593;SDS011;10455;48.732;10.266;2024-01-15T10:37:36;7.90;;;7.10;;
20593;SDS011;10455;48.732;10.266;2024-01-15T10:42:39;7.97;;;7.03;;
20593;SDS011;10455;48.732;10.266;2024-01-15T10:47:41;9.53;;;7.80;;
20593;SDS011;10455;48.732;10.266;2024-01-15T10:52:44;9.20;;;8.30;;
20593;SDS011;10455;48.732;10.266;2024-01-15T10:57:47;10.10;;;6.57;;
20593;SDS011;10455;48.732;10.266;2024-01-15T11:02:50;9.13;;;7.17;;
20593;SDS011;10455;48.732;10.266;2024-01-15T11:07:55;7.83;;;7.07;;
20593;SDS011;10455;48.732;10.266;2024-01-15T11:12:58;7.13;;;6.43;;
20593;SDS011;10455;48.732;10.266;2024-01-15T11:18:01;8.53;;;6.73;;
20593;SDS011;10455;48.732;10.266;2024-01-15T11:23:05;9.37;;;6.50;;
20593;SDS011;10455;48.732;10.266;2024-01-15T11:28:10;7.03;;;6.23;;
20593;SDS011;10455;48.732;10.266;2024-01-15T11:38:34;6.63;;;6.03;;
20593;SDS011;10455;48.732;10.266;2024-01-15T11:43:37;6.90;;;6.27;;
20593;SDS011;10455;48.732;10.266;2024-01-15T11:48:43;7.43;;;6.73;;
20593;SDS011;10455;48.732;10.266;2024-01-15T11:53:47;7.30;;;6.50;;
20593;SDS011;10455;48.732;10.266;2024-01-15T11:58:54;8.20;;;7.40;;
20593;SDS011;10455;48.732;10.266;2024-01-15T12:03:57;7.87;;;7.17;;
20593;SDS011;10455;48.732;10.266;2024-01-15T12:09:05;8.53;;;7.63;;
20593;SDS011;10455;48.732;10.266;2024-01-15T12:14:09;8.63;;;7.80;;
20593;SDS011;10455;48.732;10.266;2024-01-15T12:19:11;9.03;;;7.97;;
20593;SDS011;10455;48.732;10.266;2024-01-15T12:24:13;8.90;;;8.07;;
20593;SDS011;10455;48.732;10.266;2024-01-15T12:29:18;8.20;;;7.50;;
20593;SDS011;10455;48.732;10.266;2024-01-15T12:34:21;8.53;;;7.73;;
20593;SDS011;10455;48.732;10.266;2024-01-15T12:39:22;7.93;;;7.23;;
20593;SDS011;10455;48.732;10.266;2024-01-15T12:44:27;9.43;;;8.47;;
20593;SDS011;10455;48.732;10.266;2024-01-15T12:49:29;8.83;;;7.97;;
20593;SDS011;10455;48.732;10.266;2024-01-15T12:54:31;9.80;;;8.80;;
20593;SDS011;10455;48.732;10.266;2024-01-15T12:59:35;9.67;;;8.70;;
20593;SDS011;10455;48.732;10.266;2024-01-15T13:04:37;33.83;;;22.13;;
20593;SDS011;10455;48.732;10.266;2024-01-15T13:09:39;36.50;;;26.27;;
20593;SDS011;10455;48.732;10.266;2024-01-15T13:14:42;11.07;;;10.03;;
20593;SDS011;10455;48.732;10.266;2024-01-15T13:19:44;11.70;;;10.13;;
20593;SDS011;10455;48.732;10.266;2024-01-15T13:24:46;11.57;;;10.40;;
20593;SDS011;10455;48.732;10.266;2024-01-15T13:29:49;8.50;;;7.70;;
20593;SDS011;10455;48.732;10.266;2024-01-15T13:34:51;9.03;;;8.17;;
20593;SDS011;10455;48.732;10.266;2024-01-15T13:39:53;8.87;;;8.03;;
20593;SDS011;10455;48.732;10.266;2024-01-15T13:44:57;8.27;;;7.33;;
20593;SDS011;10455;48.732;10.266;2024-01-15T13:49:59;8.27;;;7.47;;
20593;SDS011;10455;48.732;10.266;2024-01-15T13:55:01;7.50;;;6.70;;
20593;SDS011;10455;48.732;10.266;2024-01-15T14:00:05;8.90;;;7.90;;
20593;SDS011;10455;48.732;10.266;2024-01-15T14:05:11;8.30;;;7.20;;
20593;SDS011;10455;48.732;10.266;2024-01-15T14:10:14;12.93;;;9.30;;
20593;SDS011;10455;48.732;10.266;2024-01-15T14:15:17;8.73;;;7.67;;
20593;SDS011;10455;48.732;10.266;2024-01-15T14:20:21;12.67;;;8.70;;
20593;SDS011;10455;48.732;10.266;2024-01-15T14:25:23;14.20;;;8.70;;
20593;SDS011;10455;48.732;10.266;2024-01-15T14:30:26;17.73;;;13.40;;
20593;SDS011;10455;48.732;10.266;2024-01-15T14:35:28;9.47;;;8.10;;
20593;SDS011;10455;48.732;10.266;2024-01-15T14:40:30;7.97;;;7.20;;
20593;SDS011;10455;48.732;10.266;2024-01-15T14:45:34;7.57;;;6.87;;
20593;SDS011;10455;48.732;10.266;2024-01-15T14:50:36;7.67;;;6.80;;
20593;SDS011;10455;48.732;10.266;2024-01-15T14:55:37;6.47;;;5.97;;
20593;SDS011;10455;48.732;10.266;2024-01-15T15:00:41;7.43;;;6.63;;
20593;SDS011;10455;48.732;10.266;2024-01-15T15:05:43;11.10;;;6.10;;
20593;SDS011;10455;48.732;10.266;2024-01-15T15:10:45;7.27;;;6.63;;
20593;SDS011;10455;48.732;10.266;2024-01-15T15:15:48;6.67;;;6.07;;
20593;SDS011;10455;48.732;10.266;2024-01-15T15:20:50;9.67;;;8.60;;
20593;SDS011;10455;48.732;10.266;2024-01-15T15:25:52;8.07;;;7.37;;
20593;SDS011;10455;48.732;10.266;2024-01-15T15:30:55;11.47;;;9.07;;
20593;SDS011;10455;48.732;10.266;2024-01-15T15:35:57;8.00;;;7.27;;
20593;SDS011;10455;48.732;10.266;2024-01-15T15:41:04;9.47;;;7.73;;
20593;SDS011;10455;48.732;10.266;2024-01-15T15:46:08;9.97;;;8.93;;
20593;SDS011;10455;48.732;10.266;2024-01-15T15:51:10;7.53;;;6.80;;
20593;SDS011;10455;48.732;10.266;2024-01-15T15:56:12;7.67;;;6.97;;
20593;SDS011;10455;48.732;10.266;2024-01-15T16:01:15;10.13;;;9.10;;
20593;SDS011;10455;48.732;10.266;2024-01-15T16:06:17;11.10;;;9.90;;
20593;SDS011;10455;48.732;10.266;2024-01-15T16:11:19;12.20;;;9.87;;
20593;SDS011;10455;48.732;10.266;2024-01-15T16:16:22;12.47;;;9.57;;
20593;SDS011;10455;48.732;10.266;2024-01-15T16:21:24;9.93;;;8.93;;
20593;SDS011;10455;48.732;10.266;2024-01-15T16:26:25;11.73;;;9.80;;
20593;SDS011;10455;48.732;10.266;2024-01-15T16:31:29;12.50;;;9.97;;
20593;SDS011;10455;48.732;10.266;2024-01-15T16:36:31;13.33;;;11.03;;
20593;SDS011;10455;48.732;10.266;2024-01-15T16:41:33;13.57;;;11.53;;
20593;SDS011;10455;48.732;10.266;2024-01-15T16:46:36;15.27;;;10.50;;
20593;SDS011;10455;48.732;10.266;2024-01-15T16:51:38;14.37;;;11.17;;
20593;SDS011;10455;48.732;10.266;2024-01-15T16:56:40;15.60;;;11.30;;
20593;SDS011;10455;48.732;10.266;2024-01-15T17:01:43;15.17;;;11.57;;
20593;SDS011;10455;48.732;10.266;2024-01-15T17:06:46;12.97;;;11.20;;
20593;SDS011;10455;48.732;10.266;2024-01-15T17:11:48;13.87;;;11.43;;
20593;SDS011;10455;48.732;10.266;2024-01-15T17:16:51;16.50;;;14.80;;
20593;SDS011;10455;48.732;10.266;2024-01-15T17:21:55;11.13;;;9.17;;
20593;SDS011;10455;48.732;10.266;2024-01-15T17:26:57;12.50;;;10.40;;
20593;SDS011;10455;48.732;10.266;2024-01-15T17:32:00;11.87;;;10.67;;
20593;SDS011;10455;48.732;10.266;2024-01-15T17:37:02;12.00;;;10.80;;
20593;SDS011;10455;48.732;10.266;2024-01-15T17:42:04;13.07;;;10.87;;
20593;SDS011;10455;48.732;10.266;2024-01-15T17:47:09;13.23;;;10.63;;
20593;SDS011;10455;48.732;10.266;2024-01-15T17:52:11;13.80;;;11.23;;
20593;SDS011;10455;48.732;10.266;2024-01-15T17:57:13;14.47;;;11.53;;
20593;SDS011;10455;48.732;10.266;2024-01-15T18:02:16;15.40;;;11.43;;
20593;SDS011;10455;48.732;10.266;2024-01-15T18:07:18;17.70;;;14.30;;
20593;SDS011;10455;48.732;10.266;2024-01-15T18:12:20;11.43;;;9.83;;
20593;SDS011;10455;48.732;10.266;2024-01-15T18:17:23;13.77;;;10.13;;
20593;SDS011;10455;48.732;10.266;2024-01-15T18:22:26;40.30;;;22.40;;
20593;SDS011;10455;48.732;10.266;2024-01-15T18:27:28;11.63;;;10.30;;
20593;SDS011;10455;48.732;10.266;2024-01-15T18:32:31;12.37;;;11.10;;
20593;SDS011;10455;48.732;10.266;2024-01-15T18:37:33;13.30;;;11.77;;
20593;SDS011;10455;48.732;10.266;2024-01-15T18:42:35;14.70;;;13.20;;
20593;SDS011;10455;48.732;10.266;2024-01-15T18:47:39;13.53;;;12.13;;
20593;SDS011;10455;48.732;10.266;2024-01-15T18:52:41;15.10;;;12.93;;
20593;SDS011;10455;48.732;10.266;2024-01-15T18:57:43;10.63;;;9.53;;
20593;SDS011;10455;48.732;10.266;2024-01-15T19:02:46;16.57;;;13.07;;
20593;SDS011;10455;48.732;10.266;2024-01-15T19:07:48;13.57;;;12.13;;
20593;SDS011;10455;48.732;10.266;2024-01-15T19:12:50;17.77;;;14.00;;
20593;SDS011;10455;48.732;10.266;2024-01-15T19:17:53;11.93;;;10.77;;
20593;SDS011;10455;48.732;10.266;2024-01-15T19:22:55;16.20;;;13.23;;
20593;SDS011;10455;48.732;10.266;2024-01-15T19:27:57;11.47;;;10.33;;
20593;SDS011;10455;48.732;10.266;2024-01-15T19:33:00;14.70;;;11.10;;
20593;SDS011;10455;48.732;10.266;2024-01-15T19:38:03;14.77;;;13.00;;
20593;SDS011;10455;48.732;10.266;2024-01-15T19:43:05;14.70;;;11.57;;
20593;SDS011;10455;48.732;10.266;2024-01-15T19:48:08;12.50;;;9.93;;
20593;SDS011;10455;48.732;10.266;2024-01-15T19:53:11;11.90;;;10.70;;
20593;SDS011;10455;48.732;10.266;2024-01-15T19:58:13;11.90;;;10.03;;
20593;SDS011;10455;48.732;10.266;2024-01-15T20:03:16;14.57;;;9.50;;
20593;SDS011;10455;48.732;10.266;2024-01-15T20:08:18;12.57;;;9.80;;
20593;SDS011;10455;48.732;10.266;2024-01-15T20:13:20;11.20;;;10.10;;
20593;SDS011;10455;48.732;10.266;2024-01-15T20:18:23;10.63;;;9.53;;
20593;SDS011;10455;48.732;10.266;2024-01-15T20:23:28;10.73;;;8.93;;
20593;SDS011;10455;48.732;10.266;2024-01-15T20:28:30;11.17;;;8.70;;
20593;SDS011;10455;48.732;10.266;2024-01-15T20:33:33;11.67;;;9.20;;
20593;SDS011;10455;48.732;10.266;2024-01-15T20:38:35;9.63;;;8.67;;
20593;SDS011;10455;48.732;10.266;2024-01-15T20:43:38;11.47;;;8.47;;
20593;SDS011;10455;48.732;10.266;2024-01-15T20:48:42;8.50;;;7.63;;
20593;SDS011;10455;48.732;10.266;2024-01-15T20:53:44;11.50;;;8.40;;
20593;SDS011;10455;48.732;10.266;2024-01-15T20:58:48;13.27;;;8.73;;
20593;SDS011;10455;48.732;10.266;2024-01-15T21:03:52;9.60;;;7.90;;
20593;SDS011;10455;48.732;10.266;2024-01-15T21:08:54;9.70;;;8.70;;
20593;SDS011;10455;48.732;10.266;2024-01-15T21:13:56;9.37;;;8.03;;
20593;SDS011;10455;48.732;10.266;2024-01-15T21:18:59;7.17;;;6.47;;
20593;SDS011;10455;48.732;10.266;2024-01-15T21:24:01;8.13;;;7.33;;
20593;SDS011;10455;48.732;10.266;2024-01-15T21:29:03;9.00;;;7.47;;
20593;SDS011;10455;48.732;10.266;2024-01-15T21:34:07;11.40;;;7.67;;
20593;SDS011;10455;48.732;10.266;2024-01-15T21:39:09;8.77;;;7.20;;
20593;SDS011;10455;48.732;10.266;2024-01-15T21:44:15;8.33;;;7.43;;
20593;SDS011;10455;48.732;10.266;2024-01-15T21:49:18;10.33;;;7.47;;
20593;SDS011;10455;48.732;10.266;2024-01-15T21:54:20;8.00;;;7.20;;
20593;SDS011;10455;48.732;10.266;2024-01-15T21:59:22;8.13;;;7.30;;
20593;SDS011;10455;48.732;10.266;2024-01-15T22:04:27;9.63;;;7.27;;
20593;SDS011;10455;48.732;10.266;2024-01-15T22:09:29;8.10;;;7.40;;
20593;SDS011;10455;48.732;10.266;2024-01-15T22:14:31;8.10;;;7.30;;
20593;SDS011;10455;48.732;10.266;2024-01-15T22:19:34;9.50;;;7.30;;
20593;SDS011;10455;48.732;10.266;2024-01-15T22:24:36;9.00;;;7.53;;
20593;SDS011;10455;48.732;10.266;2024-01-15T22:29:38;7.90;;;7.10;;
20593;SDS011;10455;48.732;10.266;2024-01-15T22:34:41;7.80;;;6.90;;
20593;SDS011;10455;48.732;10.266;2024-01-15T22:39:43;8.93;;;7.30;;
20593;SDS011;10455;48.732;10.266;2024-01-15T22:44:45;8.83;;;6.70;;
20593;SDS011;10455;48.732;10.266;2024-01-15T22:49:48;11.40;;;7.30;;
20593;SDS011;10455;48.732;10.266;2024-01-15T22:54:51;8.90;;;7.40;;
20593;SDS011;10455;48.732;10.266;2024-01-15T22:59:54;10.10;;;8.00;;
20593;SDS011;10455;48.732;10.266;2024-01-15T23:04:57;9.67;;;7.50;;
20593;SDS011;10455;48.732;10.266;2024-01-15T23:09:59;10.17;;;8.83;;
20593;SDS011;10455;48.732;10.266;2024-01-15T23:15:01;9.87;;;7.80;;
20593;SDS011;10455;48.732;10.266;2024-01-15T23:20:06;9.47;;;8.10;;
20593;SDS011;10455;48.732;10.266;2024-01-15T23:25:09;11.63;;;8.57;;
20593;SDS011;10455;48.732;10.266;2024-01-15T23:30:11;11.60;;;8.60;;
20593;SDS011;10455;48.732;10.266;2024-01-15T23:35:15;9.97;;;8.40;;
20593;SDS011;10455;48.732;10.266;2024-01-15T23:40:17;9.00;;;7.83;;
20593;SDS011;10455;48.732;10.266;2024-01-15T23:45:19;9.13;;;8.33;;
20593;SDS011;10455;48.732;10.266;2024-01-15T23:50:22;9.93;;;8.30;;
20593;SDS011;10455;48.732;10.266;2024-01-15T23:55:24;9.33;;;7.73;;
